Thursday, October 23, 2014
08:47 UTC
  |  Log In   |  Register Free
Airport Search:

Chanute Martin Johnson Airport
(KCNU)

Chanute Martin Johnson Airport Diagram
No Airport Diagram Available

FAA data valid effective September 18, 2014 - November 13, 2014 (unless otherwise noted).

 
 
 
 
 
 
 
 
 
 
 
 
 
 

Current Aviation Weather for Chanute Martin Johnson Airport (KCNU)

The most recent METAR observation for KCNU was updated at: 0809
METAR Summary (Translated METAR)
KCNU
230752Z AUTO 18005KT 10SM SCT018 OVC120 17/14 A3012 RMK AO2 SLP190 T01720139
KPPF
230752Z AUTO 00000KT 10SM -RA OVC100 16/14 A3013 RMK AO2 RAB10 SLP195 P0000 T01610144
(20.3 nm SW from KCNU)
KIDP
230755Z AUTO 00000KT 7SM -RA OVC095 16/15 A3011 RMK AO2
(33.7 nm SW from KCNU)
TAF Summary (Translated TAF)
KCNU
230744Z 2308/2406 19008KT P6SM VCSH SCT030 BKN060 TEMPO 2308/2312 5SM SHRA BKN030 FM231200 19007KT 6SM BR OVC015 FM231800 18011KT P6SM BKN035
  Airport Weather Conditions for KCNU

 Current Weather at CNU
63° F
Overcast
South winds at 5.8 mph
CNU NOAA Radar

Pressure: 30.12 in
Humidity: 81%
Wind: South at 5.8 MPH (5 KT)
Dew Point: 57.0°F
Visibility: 10.00 mi


Airport Weather Forecast for KCNU

Translated METAR and TAF for KCNU
Translated METAR for KCNU (0842 UTC 23 October 2014)
found at http://aviationweather.gov/adds/metars/
 
METAR text: KCNU 230752Z AUTO 18005KT 10SM SCT018 OVC120 17/14 A3012 RMK AO2 SLP190 T01720139
Conditions at: KCNU (CHANUTE , KS, US) observed 0752 UTC 23 October 2014
Temperature: 17.2°C (63°F)
Dewpoint: 13.9°C (57°F) [RH = 81%]
Pressure (altimeter): 30.12 inches Hg (1020.1 mb)
[Sea-level pressure: 1019.0 mb]
Winds: from the S (180 degrees) at 6 MPH (5 knots; 2.6 m/s)
Visibility: 10 or more miles (16+ km)
Ceiling: 12000 feet AGL
Clouds: scattered clouds at 1800 feet AGL
overcast cloud deck at 12000 feet AGL
Weather: automated observation with no human augmentation;
there may or may not be significant weather present at this time
Translated TAF for KCNU
Forecast for: KCNU (CHANUTE , KS, US)
TAF Text: KCNU 230744Z 2308/2406 19008KT P6SM VCSH SCT030 BKN060
Forecast period: 0800 to 1200 UTC 23 October 2014
Forecast type: FROM: standard forecast or significant change
Winds: from the S (190 degrees) at 9 MPH (8 knots; 4.2 m/s)
Visibility: 6 or more miles (10+ km)
Ceiling: 6000 feet AGL
Clouds: scattered clouds at 3000 feet AGL
broken clouds at 6000 feet AGL
Weather: VCSH  (showers in vicinity)
TAF Text: TEMPO 2308/2312 5SM SHRA BKN030
Forecast period: 0800 to 1200 UTC 23 October 2014
Forecast type: TEMPORARY: The following changes expected for less than half the time period
Visibility: 5 miles (8 km)
Ceiling: 3000 feet AGL
Clouds: broken clouds at 3000 feet AGL
Weather: SHRA  (rain showers)
TAF Text: FM231200 19007KT 6SM BR OVC015
Forecast period: 1200 to 1800 UTC 23 October 2014
Forecast type: FROM: standard forecast or significant change
Winds: from the S (190 degrees) at 8 MPH (7 knots; 3.6 m/s)
Visibility: 6 miles (10 km)
Ceiling: 1500 feet AGL
Clouds: overcast cloud deck at 1500 feet AGL
Weather: BR  (mist)
TAF Text: FM231800 18011KT P6SM BKN035
Forecast period: 1800 UTC 23 October 2014 to 0600 UTC 24 October 2014
Forecast type: FROM: standard forecast or significant change
Winds: from the S (180 degrees) at 13 MPH (11 knots; 5.7 m/s)
Visibility: 6 or more miles (10+ km)
Ceiling: 3500 feet AGL
Clouds: broken clouds at 3500 feet AGL
Weather: no significant weather forecast for this period

Find All Airport Services Find A Hotel Find A Rental Car Find A Golf Course Find A Restaurant $100 Hamburger



FBO's on the Field
FBO Company Facility Photos Services Transportation Aviation Fuel Prices: Prices include tax
Catering Weather Repair Courtesy Rental Type 100LL JetA JetA+ MOGAS 8087
 
City of Chanute

This FBO has not yet been rated
FS: Phillips 66
Last Updated: Oct-03
Login to update fuel prices
SS:
Contact City of ChanuteMore FBO Information
 
Add another FBO Facility Photos Catering Weather Repair Courtesy Rental Type 100LL JetA JetA+ MOGAS 8087
Services Transportation Aviation Fuel Prices: Prices include tax


model-print
model-print
model-print
model-print